notre code QR

Villámtérkép további részletek blitzortung!


Csapadékradar további részletek rain snow radar


További állomásunk adatai:

Template documentation
and downloads

And another site

Mobil nézet





No particular awareness of the weather is required.    There are no Weather-warnings

Közeli METAR jelentések

   
LHBP - Budapest
Frissítve: 25-02-2020 16:00
Derült  
Derült  
   Szél: DNY 24.1 km/h
Szél: DNY 24.1 km/h
Hőmérséklet: 16°C
Harmatpont: 5°C
Páratartalom: 48%
Légnyomás: 1003 hPa
Látótávolság: More than 10 km
Felhő fajták: Derült
LHBP 251500Z 23013KT CAVOK 16/05 Q1003 NOSIG
LHKE - Kecskemét
Frissítve: 25-02-2020 15:45
Derült  
Derült  
   Szél: NYDNY 25.9 km/h
Szél: NYDNY 25.9 km/h
Hőmérséklet: 16°C
Harmatpont: 5°C
Páratartalom: 48%
Légnyomás: 1004 hPa
Látótávolság: More than 10 km
Felhő fajták: Derült
LHKE 251445Z 24014KT CAVOK 16/05 Q1004 R12/01//95 NOSIG RMK BLU
LHPP - Pécs
Frissítve: 25-02-2020 15:45
Közepesen felhős  
Közepesen felhős  
   Szél: NY 22.2 km/h
Szél: NY 22.2 km/h
Hőmérséklet: 14°C
Harmatpont: 5°C
Páratartalom: 55%
Légnyomás: 1005 hPa
Felhők: Közepesen felhős
Látótávolság: More than 10 km
Felhő fajták: Kissé felhős 4000 ft,
Közepesen felhős 6000 ft
LHPP 251445Z 27012KT 9999 FEW040 SCT060 14/05 Q1005
LHSN - Szolnok
Frissítve: 25-02-2020 15:45
Derült  
Derült  
   Szél: NYDNY 22.2 km/h
Szél: NYDNY 22.2 km/h
Hőmérséklet: 17°C
Harmatpont: 5°C
Páratartalom: 45%
Légnyomás: 1004 hPa
Látótávolság: More than 10 km
Felhő fajták: Derült
LHSN 251445Z 24012KT CAVOK 17/05 Q1004 NOSIG RMK BLU
LHDC - Debrecen
Frissítve: 25-02-2020 15:45
Derült  
Derült  
   Szél: DNY 18.5 km/h
Szél: DNY 18.5 km/h
Hőmérséklet: 15°C
Harmatpont: 4°C
Páratartalom: 48%
Légnyomás: 1004 hPa
Látótávolság: More than 10 km
Felhő fajták: Derült
LHDC 251445Z AUTO 22010KT CAVOK 15/04 Q1004 NOSIG
LHPA - Pápa
Frissítve: 25-02-2020 15:45
Derült  
Derült  
   Szél: D 22.2 km/h
Szél: D 22.2 km/h
Hőmérséklet: 15°C
Harmatpont: 5°C
Páratartalom: 51%
Légnyomás: 1002 hPa
Látótávolság: More than 10 km
Felhő fajták: Derült
LHPA 251445Z 19012KT 150V210 CAVOK 15/05 Q1002 NOSIG RMK BLU

Eredeti script  Saratoga-weather.org Adapted for the template by  Weerstation Leuven

Készülékünk:

Weather-program
Meteobridge

Weather-server
My Computer

Meteobridge

My Computer